sensor_id;sensor_type;location;lat;lon;timestamp;P1;durP1;ratioP1;P2;durP2;ratioP2
10341;SDS011;5216;54.602;18.356;2023-02-17T00:03:36;47.70;;;31.23;;
10341;SDS011;5216;54.602;18.356;2023-02-17T00:06:07;46.20;;;31.13;;
10341;SDS011;5216;54.602;18.356;2023-02-17T00:08:34;41.90;;;30.20;;
10341;SDS011;5216;54.602;18.356;2023-02-17T00:11:01;46.40;;;30.30;;
10341;SDS011;5216;54.602;18.356;2023-02-17T00:13:28;37.80;;;27.70;;
10341;SDS011;5216;54.602;18.356;2023-02-17T00:15:54;38.23;;;28.63;;
10341;SDS011;5216;54.602;18.356;2023-02-17T00:18:21;35.90;;;27.53;;
10341;SDS011;5216;54.602;18.356;2023-02-17T00:20:48;37.40;;;27.40;;
10341;SDS011;5216;54.602;18.356;2023-02-17T00:23:14;33.90;;;26.10;;
10341;SDS011;5216;54.602;18.356;2023-02-17T00:25:41;31.83;;;25.13;;
10341;SDS011;5216;54.602;18.356;2023-02-17T00:28:07;31.67;;;23.87;;
10341;SDS011;5216;54.602;18.356;2023-02-17T00:30:34;33.10;;;24.57;;
10341;SDS011;5216;54.602;18.356;2023-02-17T00:33:02;32.97;;;23.97;;
10341;SDS011;5216;54.602;18.356;2023-02-17T00:35:28;29.67;;;23.53;;
10341;SDS011;5216;54.602;18.356;2023-02-17T00:37:55;34.17;;;24.67;;
10341;SDS011;5216;54.602;18.356;2023-02-17T00:40:21;28.07;;;22.57;;
10341;SDS011;5216;54.602;18.356;2023-02-17T00:42:48;26.10;;;22.03;;
10341;SDS011;5216;54.602;18.356;2023-02-17T00:45:14;27.83;;;22.77;;
10341;SDS011;5216;54.602;18.356;2023-02-17T00:47:41;28.23;;;22.10;;
10341;SDS011;5216;54.602;18.356;2023-02-17T00:50:07;28.53;;;22.87;;
10341;SDS011;5216;54.602;18.356;2023-02-17T00:52:34;27.00;;;22.30;;
10341;SDS011;5216;54.602;18.356;2023-02-17T00:55:01;25.67;;;21.30;;
10341;SDS011;5216;54.602;18.356;2023-02-17T00:57:27;26.40;;;22.30;;
10341;SDS011;5216;54.602;18.356;2023-02-17T00:59:57;24.47;;;20.57;;
10341;SDS011;5216;54.602;18.356;2023-02-17T01:02:24;25.13;;;21.40;;
10341;SDS011;5216;54.602;18.356;2023-02-17T01:04:50;24.47;;;20.30;;
10341;SDS011;5216;54.602;18.356;2023-02-17T01:07:17;23.13;;;19.90;;
10341;SDS011;5216;54.602;18.356;2023-02-17T01:09:43;22.80;;;19.53;;
10341;SDS011;5216;54.602;18.356;2023-02-17T01:12:13;26.00;;;20.27;;
10341;SDS011;5216;54.602;18.356;2023-02-17T01:14:39;22.37;;;20.03;;
10341;SDS011;5216;54.602;18.356;2023-02-17T01:17:06;22.80;;;20.40;;
10341;SDS011;5216;54.602;18.356;2023-02-17T01:19:32;21.57;;;18.67;;
10341;SDS011;5216;54.602;18.356;2023-02-17T01:21:58;21.50;;;19.03;;
10341;SDS011;5216;54.602;18.356;2023-02-17T01:24:25;23.97;;;19.60;;
10341;SDS011;5216;54.602;18.356;2023-02-17T01:26:51;22.03;;;18.60;;
10341;SDS011;5216;54.602;18.356;2023-02-17T01:29:18;20.83;;;18.07;;
10341;SDS011;5216;54.602;18.356;2023-02-17T01:31:44;23.03;;;19.57;;
10341;SDS011;5216;54.602;18.356;2023-02-17T01:34:11;22.90;;;20.57;;
10341;SDS011;5216;54.602;18.356;2023-02-17T01:36:37;24.93;;;20.23;;
10341;SDS011;5216;54.602;18.356;2023-02-17T01:39:04;23.23;;;19.87;;
10341;SDS011;5216;54.602;18.356;2023-02-17T01:41:30;24.03;;;20.57;;
10341;SDS011;5216;54.602;18.356;2023-02-17T01:46:50;23.00;;;19.77;;
10341;SDS011;5216;54.602;18.356;2023-02-17T01:51:44;21.03;;;18.83;;
10341;SDS011;5216;54.602;18.356;2023-02-17T01:54:15;21.53;;;19.23;;
10341;SDS011;5216;54.602;18.356;2023-02-17T01:56:43;23.10;;;20.37;;
10341;SDS011;5216;54.602;18.356;2023-02-17T01:59:14;24.10;;;20.67;;
10341;SDS011;5216;54.602;18.356;2023-02-17T02:01:42;22.67;;;20.27;;
10341;SDS011;5216;54.602;18.356;2023-02-17T02:04:08;21.83;;;19.50;;
10341;SDS011;5216;54.602;18.356;2023-02-17T02:06:35;21.17;;;18.73;;
10341;SDS011;5216;54.602;18.356;2023-02-17T02:09:06;21.40;;;19.10;;
10341;SDS011;5216;54.602;18.356;2023-02-17T02:11:33;21.17;;;18.93;;
10341;SDS011;5216;54.602;18.356;2023-02-17T02:14:00;21.37;;;18.57;;
10341;SDS011;5216;54.602;18.356;2023-02-17T02:19:10;20.30;;;18.20;;
10341;SDS011;5216;54.602;18.356;2023-02-17T02:22:03;21.83;;;19.23;;
10341;SDS011;5216;54.602;18.356;2023-02-17T02:30:15;23.63;;;19.17;;
10341;SDS011;5216;54.602;18.356;2023-02-17T02:35:35;24.53;;;19.77;;
10341;SDS011;5216;54.602;18.356;2023-02-17T02:38:10;25.30;;;20.83;;
10341;SDS011;5216;54.602;18.356;2023-02-17T02:40:40;25.53;;;21.43;;
10341;SDS011;5216;54.602;18.356;2023-02-17T02:43:08;24.80;;;21.07;;
10341;SDS011;5216;54.602;18.356;2023-02-17T02:45:35;26.27;;;21.60;;
10341;SDS011;5216;54.602;18.356;2023-02-17T02:48:01;24.63;;;21.10;;
10341;SDS011;5216;54.602;18.356;2023-02-17T02:50:44;26.03;;;20.93;;
10341;SDS011;5216;54.602;18.356;2023-02-17T02:55:57;26.60;;;21.10;;
10341;SDS011;5216;54.602;18.356;2023-02-17T03:01:03;26.97;;;22.37;;
10341;SDS011;5216;54.602;18.356;2023-02-17T03:06:51;27.73;;;22.43;;
10341;SDS011;5216;54.602;18.356;2023-02-17T03:09:20;27.00;;;22.20;;
10341;SDS011;5216;54.602;18.356;2023-02-17T03:11:47;24.53;;;21.30;;
10341;SDS011;5216;54.602;18.356;2023-02-17T03:14:16;25.53;;;21.53;;
10341;SDS011;5216;54.602;18.356;2023-02-17T03:16:43;27.63;;;21.57;;
10341;SDS011;5216;54.602;18.356;2023-02-17T03:19:10;28.67;;;22.97;;
10341;SDS011;5216;54.602;18.356;2023-02-17T03:24:09;26.53;;;21.73;;
10341;SDS011;5216;54.602;18.356;2023-02-17T03:26:35;27.37;;;21.80;;
10341;SDS011;5216;54.602;18.356;2023-02-17T03:29:02;28.57;;;22.27;;
10341;SDS011;5216;54.602;18.356;2023-02-17T03:31:28;28.40;;;22.70;;
10341;SDS011;5216;54.602;18.356;2023-02-17T03:33:56;27.33;;;21.53;;
10341;SDS011;5216;54.602;18.356;2023-02-17T03:36:24;27.53;;;22.13;;
10341;SDS011;5216;54.602;18.356;2023-02-17T03:38:51;29.83;;;23.17;;
10341;SDS011;5216;54.602;18.356;2023-02-17T03:41:17;30.27;;;22.67;;
10341;SDS011;5216;54.602;18.356;2023-02-17T03:43:44;28.57;;;23.23;;
10341;SDS011;5216;54.602;18.356;2023-02-17T03:46:11;27.80;;;23.00;;
10341;SDS011;5216;54.602;18.356;2023-02-17T03:48:37;25.40;;;21.47;;
10341;SDS011;5216;54.602;18.356;2023-02-17T03:51:11;24.17;;;21.43;;
10341;SDS011;5216;54.602;18.356;2023-02-17T03:53:38;24.60;;;20.40;;
10341;SDS011;5216;54.602;18.356;2023-02-17T03:56:04;25.97;;;21.50;;
10341;SDS011;5216;54.602;18.356;2023-02-17T03:58:32;23.43;;;20.90;;
10341;SDS011;5216;54.602;18.356;2023-02-17T04:00:59;24.47;;;20.60;;
10341;SDS011;5216;54.602;18.356;2023-02-17T04:03:25;25.77;;;20.30;;
10341;SDS011;5216;54.602;18.356;2023-02-17T04:05:52;25.27;;;21.43;;
10341;SDS011;5216;54.602;18.356;2023-02-17T04:08:20;23.77;;;20.87;;
10341;SDS011;5216;54.602;18.356;2023-02-17T04:10:50;24.43;;;21.03;;
10341;SDS011;5216;54.602;18.356;2023-02-17T04:13:16;23.23;;;20.13;;
10341;SDS011;5216;54.602;18.356;2023-02-17T04:15:43;22.83;;;20.23;;
10341;SDS011;5216;54.602;18.356;2023-02-17T04:18:09;24.60;;;20.53;;
10341;SDS011;5216;54.602;18.356;2023-02-17T04:20:36;23.53;;;20.80;;
10341;SDS011;5216;54.602;18.356;2023-02-17T04:23:02;23.53;;;20.80;;
10341;SDS011;5216;54.602;18.356;2023-02-17T04:25:29;23.33;;;20.83;;
10341;SDS011;5216;54.602;18.356;2023-02-17T04:27:55;23.50;;;20.83;;
10341;SDS011;5216;54.602;18.356;2023-02-17T04:30:22;23.50;;;21.00;;
10341;SDS011;5216;54.602;18.356;2023-02-17T04:32:48;23.87;;;21.27;;
10341;SDS011;5216;54.602;18.356;2023-02-17T04:35:15;24.17;;;20.90;;
10341;SDS011;5216;54.602;18.356;2023-02-17T04:37:41;23.80;;;21.20;;
10341;SDS011;5216;54.602;18.356;2023-02-17T04:40:08;25.40;;;20.23;;
10341;SDS011;5216;54.602;18.356;2023-02-17T04:42:36;22.30;;;19.90;;
10341;SDS011;5216;54.602;18.356;2023-02-17T04:45:02;24.13;;;21.07;;
10341;SDS011;5216;54.602;18.356;2023-02-17T04:47:29;25.90;;;21.50;;
10341;SDS011;5216;54.602;18.356;2023-02-17T04:49:56;23.77;;;20.53;;
10341;SDS011;5216;54.602;18.356;2023-02-17T04:52:22;24.93;;;21.63;;
10341;SDS011;5216;54.602;18.356;2023-02-17T04:54:49;25.33;;;22.23;;
10341;SDS011;5216;54.602;18.356;2023-02-17T04:57:15;24.33;;;21.73;;
10341;SDS011;5216;54.602;18.356;2023-02-17T04:59:42;23.87;;;21.30;;
10341;SDS011;5216;54.602;18.356;2023-02-17T05:02:08;23.20;;;20.67;;
10341;SDS011;5216;54.602;18.356;2023-02-17T05:04:35;23.90;;;21.27;;
10341;SDS011;5216;54.602;18.356;2023-02-17T05:07:03;23.53;;;21.00;;
10341;SDS011;5216;54.602;18.356;2023-02-17T05:09:29;24.30;;;20.93;;
10341;SDS011;5216;54.602;18.356;2023-02-17T05:11:56;25.47;;;21.47;;
10341;SDS011;5216;54.602;18.356;2023-02-17T05:14:22;26.27;;;21.77;;
10341;SDS011;5216;54.602;18.356;2023-02-17T05:16:49;22.87;;;20.57;;
10341;SDS011;5216;54.602;18.356;2023-02-17T05:19:15;23.40;;;20.90;;
10341;SDS011;5216;54.602;18.356;2023-02-17T05:21:42;24.80;;;20.30;;
10341;SDS011;5216;54.602;18.356;2023-02-17T05:24:08;23.73;;;20.53;;
10341;SDS011;5216;54.602;18.356;2023-02-17T05:26:35;24.33;;;21.20;;
10341;SDS011;5216;54.602;18.356;2023-02-17T05:29:01;24.40;;;21.40;;
10341;SDS011;5216;54.602;18.356;2023-02-17T05:31:28;23.30;;;20.77;;
10341;SDS011;5216;54.602;18.356;2023-02-17T05:33:54;23.30;;;20.80;;
10341;SDS011;5216;54.602;18.356;2023-02-17T05:36:21;22.43;;;20.13;;
10341;SDS011;5216;54.602;18.356;2023-02-17T05:38:47;23.50;;;20.00;;
10341;SDS011;5216;54.602;18.356;2023-02-17T05:41:15;25.53;;;20.87;;
10341;SDS011;5216;54.602;18.356;2023-02-17T05:43:41;24.00;;;20.40;;
10341;SDS011;5216;54.602;18.356;2023-02-17T05:46:08;23.07;;;20.60;;
10341;SDS011;5216;54.602;18.356;2023-02-17T05:48:35;22.73;;;20.37;;
10341;SDS011;5216;54.602;18.356;2023-02-17T06:02:04;22.40;;;20.03;;
10341;SDS011;5216;54.602;18.356;2023-02-17T06:04:31;22.83;;;20.33;;
10341;SDS011;5216;54.602;18.356;2023-02-17T06:06:58;24.03;;;21.30;;
10341;SDS011;5216;54.602;18.356;2023-02-17T06:09:25;22.97;;;20.57;;
10341;SDS011;5216;54.602;18.356;2023-02-17T06:11:51;25.47;;;21.10;;
10341;SDS011;5216;54.602;18.356;2023-02-17T06:14:18;22.27;;;19.87;;
10341;SDS011;5216;54.602;18.356;2023-02-17T06:16:44;23.20;;;20.77;;
10341;SDS011;5216;54.602;18.356;2023-02-17T06:19:11;22.93;;;20.30;;
10341;SDS011;5216;54.602;18.356;2023-02-17T06:21:37;25.07;;;20.83;;
10341;SDS011;5216;54.602;18.356;2023-02-17T06:24:04;22.83;;;19.87;;
10341;SDS011;5216;54.602;18.356;2023-02-17T06:26:31;20.97;;;18.63;;
10341;SDS011;5216;54.602;18.356;2023-02-17T06:28:57;22.00;;;19.53;;
10341;SDS011;5216;54.602;18.356;2023-02-17T06:31:24;22.23;;;19.27;;
10341;SDS011;5216;54.602;18.356;2023-02-17T06:33:51;21.37;;;19.07;;
10341;SDS011;5216;54.602;18.356;2023-02-17T06:36:17;21.23;;;18.93;;
10341;SDS011;5216;54.602;18.356;2023-02-17T06:38:49;21.33;;;19.13;;
10341;SDS011;5216;54.602;18.356;2023-02-17T06:41:15;23.27;;;18.80;;
10341;SDS011;5216;54.602;18.356;2023-02-17T06:43:42;22.87;;;19.47;;
10341;SDS011;5216;54.602;18.356;2023-02-17T06:46:08;20.30;;;18.10;;
10341;SDS011;5216;54.602;18.356;2023-02-17T06:48:35;21.63;;;18.87;;
10341;SDS011;5216;54.602;18.356;2023-02-17T06:54:52;19.50;;;17.30;;
10341;SDS011;5216;54.602;18.356;2023-02-17T06:57:18;18.30;;;16.40;;
10341;SDS011;5216;54.602;18.356;2023-02-17T06:59:45;17.47;;;15.67;;
10341;SDS011;5216;54.602;18.356;2023-02-17T07:02:12;17.73;;;15.90;;
10341;SDS011;5216;54.602;18.356;2023-02-17T07:04:39;16.43;;;14.73;;
10341;SDS011;5216;54.602;18.356;2023-02-17T07:07:07;17.60;;;15.43;;
10341;SDS011;5216;54.602;18.356;2023-02-17T07:09:33;15.70;;;14.03;;
10341;SDS011;5216;54.602;18.356;2023-02-17T07:15:47;17.13;;;15.43;;
10341;SDS011;5216;54.602;18.356;2023-02-17T07:18:14;16.27;;;14.57;;
10341;SDS011;5216;54.602;18.356;2023-02-17T07:20:40;15.43;;;13.93;;
10341;SDS011;5216;54.602;18.356;2023-02-17T07:23:07;14.13;;;12.63;;
10341;SDS011;5216;54.602;18.356;2023-02-17T07:25:33;14.93;;;13.17;;
10341;SDS011;5216;54.602;18.356;2023-02-17T07:28:00;16.40;;;14.70;;
10341;SDS011;5216;54.602;18.356;2023-02-17T07:30:28;13.07;;;11.67;;
10341;SDS011;5216;54.602;18.356;2023-02-17T07:32:54;14.20;;;12.43;;
10341;SDS011;5216;54.602;18.356;2023-02-17T07:35:21;12.77;;;11.57;;
10341;SDS011;5216;54.602;18.356;2023-02-17T07:37:47;13.20;;;11.80;;
10341;SDS011;5216;54.602;18.356;2023-02-17T07:40:14;12.60;;;11.40;;
10341;SDS011;5216;54.602;18.356;2023-02-17T07:42:40;12.67;;;11.33;;
10341;SDS011;5216;54.602;18.356;2023-02-17T07:45:07;13.13;;;11.23;;
10341;SDS011;5216;54.602;18.356;2023-02-17T07:47:35;12.07;;;10.97;;
10341;SDS011;5216;54.602;18.356;2023-02-17T07:50:01;12.70;;;11.50;;
10341;SDS011;5216;54.602;18.356;2023-02-17T07:52:28;12.00;;;10.90;;
10341;SDS011;5216;54.602;18.356;2023-02-17T07:54:54;21.17;;;18.97;;
10341;SDS011;5216;54.602;18.356;2023-02-17T07:57:21;17.63;;;15.77;;
10341;SDS011;5216;54.602;18.356;2023-02-17T07:59:47;12.83;;;11.63;;
10341;SDS011;5216;54.602;18.356;2023-02-17T08:02:14;18.33;;;15.93;;
10341;SDS011;5216;54.602;18.356;2023-02-17T08:04:42;15.67;;;13.93;;
10341;SDS011;5216;54.602;18.356;2023-02-17T08:07:08;13.30;;;11.90;;
10341;SDS011;5216;54.602;18.356;2023-02-17T08:09:35;14.90;;;13.03;;
10341;SDS011;5216;54.602;18.356;2023-02-17T08:12:22;13.03;;;11.60;;
10341;SDS011;5216;54.602;18.356;2023-02-17T08:15:08;11.97;;;10.63;;
10341;SDS011;5216;54.602;18.356;2023-02-17T08:17:34;16.97;;;13.23;;
10341;SDS011;5216;54.602;18.356;2023-02-17T08:20:01;12.20;;;10.97;;
10341;SDS011;5216;54.602;18.356;2023-02-17T08:22:34;13.27;;;11.70;;
10341;SDS011;5216;54.602;18.356;2023-02-17T08:25:01;12.10;;;10.40;;
10341;SDS011;5216;54.602;18.356;2023-02-17T08:27:29;17.43;;;13.00;;
10341;SDS011;5216;54.602;18.356;2023-02-17T08:29:56;48.77;;;43.43;;
10341;SDS011;5216;54.602;18.356;2023-02-17T08:32:23;14.27;;;12.70;;
10341;SDS011;5216;54.602;18.356;2023-02-17T08:34:49;12.33;;;11.13;;
10341;SDS011;5216;54.602;18.356;2023-02-17T08:37:17;10.10;;;9.10;;
10341;SDS011;5216;54.602;18.356;2023-02-17T08:39:44;10.33;;;9.33;;
10341;SDS011;5216;54.602;18.356;2023-02-17T08:42:10;9.70;;;8.80;;
10341;SDS011;5216;54.602;18.356;2023-02-17T08:44:38;13.97;;;8.60;;
10341;SDS011;5216;54.602;18.356;2023-02-17T08:47:08;10.37;;;9.10;;
10341;SDS011;5216;54.602;18.356;2023-02-17T08:49:38;10.27;;;9.27;;
10341;SDS011;5216;54.602;18.356;2023-02-17T08:52:10;9.23;;;8.33;;
10341;SDS011;5216;54.602;18.356;2023-02-17T08:54:37;9.20;;;8.30;;
10341;SDS011;5216;54.602;18.356;2023-02-17T08:57:04;10.40;;;9.37;;
10341;SDS011;5216;54.602;18.356;2023-02-17T08:59:30;10.50;;;9.40;;
10341;SDS011;5216;54.602;18.356;2023-02-17T09:01:57;10.23;;;9.23;;
10341;SDS011;5216;54.602;18.356;2023-02-17T09:07:52;8.00;;;7.30;;
10341;SDS011;5216;54.602;18.356;2023-02-17T09:10:19;8.00;;;7.23;;
10341;SDS011;5216;54.602;18.356;2023-02-17T09:12:45;8.07;;;7.27;;
10341;SDS011;5216;54.602;18.356;2023-02-17T09:15:18;8.50;;;7.70;;
10341;SDS011;5216;54.602;18.356;2023-02-17T09:17:44;7.73;;;7.03;;
10341;SDS011;5216;54.602;18.356;2023-02-17T09:20:11;9.13;;;8.23;;
10341;SDS011;5216;54.602;18.356;2023-02-17T09:22:49;8.20;;;7.37;;
10341;SDS011;5216;54.602;18.356;2023-02-17T09:25:20;9.60;;;8.70;;
10341;SDS011;5216;54.602;18.356;2023-02-17T09:27:47;8.83;;;7.93;;
10341;SDS011;5216;54.602;18.356;2023-02-17T09:30:14;10.40;;;9.40;;
10341;SDS011;5216;54.602;18.356;2023-02-17T09:32:41;11.13;;;10.03;;
10341;SDS011;5216;54.602;18.356;2023-02-17T09:35:15;9.73;;;8.83;;
10341;SDS011;5216;54.602;18.356;2023-02-17T09:37:42;10.00;;;9.00;;
10341;SDS011;5216;54.602;18.356;2023-02-17T09:42:59;11.30;;;10.20;;
10341;SDS011;5216;54.602;18.356;2023-02-17T09:45:27;13.60;;;12.20;;
10341;SDS011;5216;54.602;18.356;2023-02-17T09:48:07;12.63;;;11.43;;
10341;SDS011;5216;54.602;18.356;2023-02-17T10:05:59;13.40;;;12.03;;
10341;SDS011;5216;54.602;18.356;2023-02-17T10:08:50;13.60;;;12.23;;
10341;SDS011;5216;54.602;18.356;2023-02-17T10:13:48;13.80;;;12.40;;
10341;SDS011;5216;54.602;18.356;2023-02-17T10:16:19;13.87;;;12.53;;
10341;SDS011;5216;54.602;18.356;2023-02-17T10:21:38;14.10;;;12.70;;
10341;SDS011;5216;54.602;18.356;2023-02-17T10:24:06;13.83;;;12.43;;
10341;SDS011;5216;54.602;18.356;2023-02-17T10:26:50;13.60;;;12.17;;
10341;SDS011;5216;54.602;18.356;2023-02-17T10:29:29;12.57;;;11.27;;
10341;SDS011;5216;54.602;18.356;2023-02-17T10:32:10;13.20;;;11.90;;
10341;SDS011;5216;54.602;18.356;2023-02-17T10:34:41;13.73;;;12.33;;
10341;SDS011;5216;54.602;18.356;2023-02-17T10:37:13;13.00;;;11.60;;
10341;SDS011;5216;54.602;18.356;2023-02-17T10:39:50;12.03;;;10.93;;
10341;SDS011;5216;54.602;18.356;2023-02-17T10:42:21;12.23;;;11.03;;
10341;SDS011;5216;54.602;18.356;2023-02-17T10:44:58;12.07;;;10.87;;
10341;SDS011;5216;54.602;18.356;2023-02-17T10:47:25;12.57;;;11.23;;
10341;SDS011;5216;54.602;18.356;2023-02-17T10:49:52;13.40;;;12.10;;
10341;SDS011;5216;54.602;18.356;2023-02-17T10:52:26;12.70;;;11.40;;
10341;SDS011;5216;54.602;18.356;2023-02-17T10:54:55;12.37;;;11.13;;
10341;SDS011;5216;54.602;18.356;2023-02-17T10:57:25;11.23;;;10.13;;
10341;SDS011;5216;54.602;18.356;2023-02-17T10:59:55;11.33;;;10.13;;
10341;SDS011;5216;54.602;18.356;2023-02-17T11:02:35;11.00;;;9.90;;
10341;SDS011;5216;54.602;18.356;2023-02-17T11:05:05;11.80;;;10.60;;
10341;SDS011;5216;54.602;18.356;2023-02-17T11:07:33;11.40;;;10.27;;
10341;SDS011;5216;54.602;18.356;2023-02-17T11:10:01;12.93;;;10.60;;
10341;SDS011;5216;54.602;18.356;2023-02-17T11:12:31;11.47;;;10.37;;
10341;SDS011;5216;54.602;18.356;2023-02-17T11:14:58;11.80;;;10.60;;
10341;SDS011;5216;54.602;18.356;2023-02-17T11:19:56;11.33;;;10.13;;
10341;SDS011;5216;54.602;18.356;2023-02-17T11:22:31;11.30;;;10.03;;
10341;SDS011;5216;54.602;18.356;2023-02-17T11:25:30;10.80;;;9.70;;
10341;SDS011;5216;54.602;18.356;2023-02-17T11:28:20;11.87;;;10.67;;
10341;SDS011;5216;54.602;18.356;2023-02-17T11:30:50;12.10;;;9.90;;
10341;SDS011;5216;54.602;18.356;2023-02-17T11:33:37;12.20;;;11.00;;
10341;SDS011;5216;54.602;18.356;2023-02-17T11:38:50;11.50;;;10.40;;
10341;SDS011;5216;54.602;18.356;2023-02-17T11:41:39;11.63;;;10.53;;
10341;SDS011;5216;54.602;18.356;2023-02-17T11:44:25;11.67;;;9.80;;
10341;SDS011;5216;54.602;18.356;2023-02-17T11:47:02;11.20;;;10.10;;
10341;SDS011;5216;54.602;18.356;2023-02-17T11:49:57;11.87;;;10.53;;
10341;SDS011;5216;54.602;18.356;2023-02-17T11:55:10;10.30;;;9.20;;
10341;SDS011;5216;54.602;18.356;2023-02-17T12:03:47;10.80;;;9.70;;
10341;SDS011;5216;54.602;18.356;2023-02-17T12:22:39;9.53;;;8.63;;
10341;SDS011;5216;54.602;18.356;2023-02-17T12:25:27;9.27;;;8.33;;
10341;SDS011;5216;54.602;18.356;2023-02-17T12:35:49;6.50;;;5.90;;
10341;SDS011;5216;54.602;18.356;2023-02-17T12:38:23;8.47;;;7.67;;
10341;SDS011;5216;54.602;18.356;2023-02-17T12:40:51;8.10;;;7.40;;
10341;SDS011;5216;54.602;18.356;2023-02-17T12:43:23;6.63;;;5.90;;
10341;SDS011;5216;54.602;18.356;2023-02-17T12:45:51;5.20;;;4.70;;
10341;SDS011;5216;54.602;18.356;2023-02-17T12:48:32;6.30;;;5.37;;
10341;SDS011;5216;54.602;18.356;2023-02-17T12:51:09;5.27;;;4.77;;
10341;SDS011;5216;54.602;18.356;2023-02-17T12:56:18;4.83;;;4.43;;
10341;SDS011;5216;54.602;18.356;2023-02-17T12:58:48;5.60;;;5.10;;
10341;SDS011;5216;54.602;18.356;2023-02-17T13:01:16;4.90;;;4.50;;
10341;SDS011;5216;54.602;18.356;2023-02-17T13:03:45;5.60;;;4.90;;
10341;SDS011;5216;54.602;18.356;2023-02-17T13:08:42;5.27;;;4.77;;
10341;SDS011;5216;54.602;18.356;2023-02-17T13:11:11;4.50;;;4.10;;
10341;SDS011;5216;54.602;18.356;2023-02-17T13:13:38;6.60;;;4.77;;
10341;SDS011;5216;54.602;18.356;2023-02-17T13:16:10;4.20;;;3.80;;
10341;SDS011;5216;54.602;18.356;2023-02-17T13:22:21;5.17;;;4.30;;
10341;SDS011;5216;54.602;18.356;2023-02-17T13:24:51;6.33;;;3.63;;
10341;SDS011;5216;54.602;18.356;2023-02-17T13:32:36;4.10;;;3.70;;
10341;SDS011;5216;54.602;18.356;2023-02-17T13:35:04;7.43;;;5.40;;
10341;SDS011;5216;54.602;18.356;2023-02-17T13:40:02;8.50;;;7.13;;
10341;SDS011;5216;54.602;18.356;2023-02-17T13:43:06;5.37;;;4.50;;
10341;SDS011;5216;54.602;18.356;2023-02-17T13:50:48;4.70;;;4.20;;
10341;SDS011;5216;54.602;18.356;2023-02-17T13:53:22;5.47;;;4.67;;
10341;SDS011;5216;54.602;18.356;2023-02-17T13:59:06;7.20;;;5.60;;
10341;SDS011;5216;54.602;18.356;2023-02-17T14:01:39;6.90;;;5.90;;
10341;SDS011;5216;54.602;18.356;2023-02-17T14:04:16;5.37;;;4.70;;
10341;SDS011;5216;54.602;18.356;2023-02-17T14:06:43;4.90;;;4.37;;
10341;SDS011;5216;54.602;18.356;2023-02-17T14:09:27;3.47;;;3.17;;
10341;SDS011;5216;54.602;18.356;2023-02-17T14:11:56;4.20;;;3.80;;
10341;SDS011;5216;54.602;18.356;2023-02-17T14:14:25;6.43;;;5.43;;
10341;SDS011;5216;54.602;18.356;2023-02-17T14:16:57;5.00;;;4.50;;
10341;SDS011;5216;54.602;18.356;2023-02-17T14:19:24;4.33;;;2.93;;
10341;SDS011;5216;54.602;18.356;2023-02-17T14:21:58;3.67;;;3.23;;
10341;SDS011;5216;54.602;18.356;2023-02-17T14:26:59;3.03;;;2.73;;
10341;SDS011;5216;54.602;18.356;2023-02-17T14:29:36;19.97;;;16.27;;
10341;SDS011;5216;54.602;18.356;2023-02-17T14:32:06;8.17;;;5.80;;
10341;SDS011;5216;54.602;18.356;2023-02-17T14:34:34;6.60;;;4.00;;
10341;SDS011;5216;54.602;18.356;2023-02-17T14:39:33;4.43;;;3.57;;
10341;SDS011;5216;54.602;18.356;2023-02-17T14:42:00;3.70;;;3.23;;
10341;SDS011;5216;54.602;18.356;2023-02-17T14:44:27;4.70;;;4.20;;
10341;SDS011;5216;54.602;18.356;2023-02-17T14:46:56;3.03;;;2.73;;
10341;SDS011;5216;54.602;18.356;2023-02-17T14:49:23;4.57;;;3.70;;
10341;SDS011;5216;54.602;18.356;2023-02-17T14:51:49;8.83;;;7.10;;
10341;SDS011;5216;54.602;18.356;2023-02-17T14:54:16;5.07;;;4.53;;
10341;SDS011;5216;54.602;18.356;2023-02-17T14:56:45;3.40;;;3.10;;
10341;SDS011;5216;54.602;18.356;2023-02-17T14:59:15;7.17;;;6.00;;
10341;SDS011;5216;54.602;18.356;2023-02-17T15:01:42;3.60;;;2.90;;
10341;SDS011;5216;54.602;18.356;2023-02-17T15:04:08;5.93;;;5.27;;
10341;SDS011;5216;54.602;18.356;2023-02-17T15:06:41;3.00;;;2.40;;
10341;SDS011;5216;54.602;18.356;2023-02-17T15:09:13;4.70;;;4.13;;
10341;SDS011;5216;54.602;18.356;2023-02-17T15:11:40;7.27;;;6.27;;
10341;SDS011;5216;54.602;18.356;2023-02-17T15:14:11;3.67;;;3.30;;
10341;SDS011;5216;54.602;18.356;2023-02-17T15:16:38;6.07;;;5.33;;
10341;SDS011;5216;54.602;18.356;2023-02-17T15:19:04;5.33;;;4.80;;
10341;SDS011;5216;54.602;18.356;2023-02-17T15:21:34;4.57;;;4.07;;
10341;SDS011;5216;54.602;18.356;2023-02-17T15:24:02;2.67;;;2.30;;
10341;SDS011;5216;54.602;18.356;2023-02-17T15:26:31;2.50;;;2.03;;
10341;SDS011;5216;54.602;18.356;2023-02-17T15:28:58;2.73;;;2.27;;
10341;SDS011;5216;54.602;18.356;2023-02-17T15:31:24;2.40;;;2.20;;
10341;SDS011;5216;54.602;18.356;2023-02-17T15:33:56;5.00;;;4.00;;
10341;SDS011;5216;54.602;18.356;2023-02-17T15:36:24;5.20;;;4.70;;
10341;SDS011;5216;54.602;18.356;2023-02-17T15:38:51;3.13;;;2.83;;
10341;SDS011;5216;54.602;18.356;2023-02-17T15:41:22;3.30;;;2.70;;
10341;SDS011;5216;54.602;18.356;2023-02-17T15:43:50;5.47;;;4.83;;
10341;SDS011;5216;54.602;18.356;2023-02-17T15:46:17;4.00;;;3.50;;
10341;SDS011;5216;54.602;18.356;2023-02-17T15:48:45;2.90;;;2.40;;
10341;SDS011;5216;54.602;18.356;2023-02-17T15:51:17;6.13;;;3.20;;
10341;SDS011;5216;54.602;18.356;2023-02-17T15:53:57;11.33;;;6.30;;
10341;SDS011;5216;54.602;18.356;2023-02-17T15:56:24;4.83;;;3.37;;
10341;SDS011;5216;54.602;18.356;2023-02-17T15:58:52;4.53;;;3.67;;
10341;SDS011;5216;54.602;18.356;2023-02-17T16:01:28;14.67;;;8.43;;
10341;SDS011;5216;54.602;18.356;2023-02-17T16:03:56;46.33;;;23.47;;
10341;SDS011;5216;54.602;18.356;2023-02-17T16:06:23;18.63;;;10.70;;
10341;SDS011;5216;54.602;18.356;2023-02-17T16:08:50;13.63;;;8.13;;
10341;SDS011;5216;54.602;18.356;2023-02-17T16:11:17;11.37;;;7.30;;
10341;SDS011;5216;54.602;18.356;2023-02-17T16:13:45;3.07;;;2.50;;
10341;SDS011;5216;54.602;18.356;2023-02-17T16:16:23;5.40;;;4.30;;
10341;SDS011;5216;54.602;18.356;2023-02-17T16:22:54;7.97;;;6.43;;
10341;SDS011;5216;54.602;18.356;2023-02-17T16:25:28;8.03;;;7.17;;
10341;SDS011;5216;54.602;18.356;2023-02-17T16:27:57;4.03;;;3.30;;
10341;SDS011;5216;54.602;18.356;2023-02-17T16:30:34;5.07;;;4.57;;
10341;SDS011;5216;54.602;18.356;2023-02-17T16:33:01;3.23;;;2.90;;
10341;SDS011;5216;54.602;18.356;2023-02-17T16:35:33;3.87;;;3.47;;
10341;SDS011;5216;54.602;18.356;2023-02-17T16:41:12;9.87;;;7.73;;
10341;SDS011;5216;54.602;18.356;2023-02-17T16:43:39;10.43;;;5.97;;
10341;SDS011;5216;54.602;18.356;2023-02-17T16:46:10;7.40;;;4.67;;
10341;SDS011;5216;54.602;18.356;2023-02-17T16:48:44;6.60;;;4.50;;
10341;SDS011;5216;54.602;18.356;2023-02-17T16:51:10;10.37;;;7.00;;
10341;SDS011;5216;54.602;18.356;2023-02-17T16:53:37;5.23;;;3.33;;
10341;SDS011;5216;54.602;18.356;2023-02-17T16:56:12;10.00;;;5.50;;
10341;SDS011;5216;54.602;18.356;2023-02-17T16:58:39;14.33;;;8.10;;
10341;SDS011;5216;54.602;18.356;2023-02-17T17:03:52;4.60;;;2.93;;
10341;SDS011;5216;54.602;18.356;2023-02-17T17:06:22;8.60;;;4.90;;
10341;SDS011;5216;54.602;18.356;2023-02-17T17:08:49;17.83;;;7.50;;
10341;SDS011;5216;54.602;18.356;2023-02-17T17:11:17;7.73;;;4.07;;
10341;SDS011;5216;54.602;18.356;2023-02-17T17:13:45;4.47;;;3.10;;
10341;SDS011;5216;54.602;18.356;2023-02-17T17:16:28;3.43;;;2.30;;